Time;durP1;ratioP1;P1;durP2;ratioP2;P2;SDS_P1;SDS_P2;PMS_P1;PMS_P2;Temp;Humidity;BMP_temperature;BMP_pressure;BME280_temperature;BME280_humidity;BME280_pressure;Samples;Min_cycle;Max_cycle;Signal;HPM_P1;HPM_P2
2022/06/06 00:00:43;;;;;;;18.45;14.45;;;;;;;;;;5030663;28;20050;-86
2022/06/06 00:03:09;;;;;;;17.00;13.13;;;;;;;;;;5031155;28;20132;-86
2022/06/06 00:05:36;;;;;;;16.60;12.45;;;16.10;99.90;;;;;;5031497;28;20140;-85
2022/06/06 00:08:03;;;;;;;17.60;12.07;;;16.00;99.90;;;;;;5034630;28;20041;-85
2022/06/06 00:10:30;;;;;;;14.98;11.82;;;;;;;;;;5035878;28;20116;-86
2022/06/06 00:12:56;;;;;;;15.48;11.38;;;;;;;;;;5034441;28;20037;-85
2022/06/06 00:15:22;;;;;;;12.60;10.50;;;;;;;;;;5034245;28;20045;-85
2022/06/06 00:17:51;;;;;;;13.68;10.95;;;15.90;99.90;;;;;;5034273;28;20159;-85
2022/06/06 00:20:17;;;;;;;13.82;10.85;;;;;;;;;;5034054;28;20045;-84
2022/06/06 00:22:43;;;;;;;12.15;9.80;;;;;;;;;;5034363;28;20400;-85
2022/06/06 00:25:10;;;;;;;15.57;11.00;;;16.10;99.90;;;;;;5017845;28;20132;-84
2022/06/06 00:27:36;;;;;;;13.40;10.50;;;;;;;;;;5017778;28;20413;-86
2022/06/06 00:30:05;;;;;;;12.77;9.50;;;15.80;99.90;;;;;;5017329;28;20068;-85
2022/06/06 00:35:20;;;;;;;10.02;8.00;;;15.80;99.90;;;;;;5035405;28;20045;-85
2022/06/06 00:37:49;;;;;;;10.40;7.10;;;15.80;99.90;;;;;;5033633;28;20552;-84
2022/06/06 00:40:17;;;;;;;9.63;6.93;;;15.90;99.90;;;;;;5034418;28;20048;-84
2022/06/06 00:42:44;;;;;;;9.52;7.38;;;15.70;99.90;;;;;;5016849;28;20045;-85
2022/06/06 00:45:29;;;;;;;7.40;6.60;;;15.70;99.90;;;;;;5033314;28;20060;-84
2022/06/06 00:48:08;;;;;;;7.93;6.90;;;15.70;99.90;;;;;;5033506;28;20045;-86
2022/06/06 00:50:48;;;;;;;7.30;6.60;;;15.70;99.90;;;;;;5016657;28;20041;-86
2022/06/06 00:53:17;;;;;;;8.07;7.00;;;15.70;99.90;;;;;;5034496;28;20081;-85
2022/06/06 00:55:53;;;;;;;8.85;7.75;;;15.60;99.90;;;;;;5034472;28;20049;-86
2022/06/06 00:58:23;;;;;;;7.60;6.30;;;15.70;99.90;;;;;;5033266;28;20395;-85
2022/06/06 01:00:50;;;;;;;6.53;5.22;;;15.90;99.90;;;;;;5070426;22;20059;-54
2022/06/06 01:03:18;;;;;;;5.30;4.80;;;15.70;99.90;;;;;;5094882;28;20044;-53
2022/06/06 01:05:47;;;;;;;6.07;5.47;;;15.70;99.90;;;;;;5094729;28;20165;-54
2022/06/06 01:08:13;;;;;;;6.65;5.78;;;15.70;99.90;;;;;;5094721;28;20363;-54
2022/06/06 01:10:39;;;;;;;6.97;6.18;;;15.60;99.90;;;;;;5094644;28;20435;-51
2022/06/06 01:13:08;;;;;;;8.25;6.40;;;15.60;99.90;;;;;;5094577;28;20133;-53
2022/06/06 01:15:47;;;;;;;7.70;6.25;;;15.60;99.90;;;;;;5076205;28;20048;-52
2022/06/06 01:18:45;;;;;;;7.40;6.60;;;15.00;99.90;;;;;;5094198;28;20093;-51
2022/06/06 01:21:20;;;;;;;8.55;6.95;;;15.60;99.90;;;;;;5094147;28;20039;-53
2022/06/06 01:24:01;;;;;;;9.77;7.32;;;15.60;99.90;;;;;;5094152;28;20077;-51
2022/06/06 01:26:58;;;;;;;9.90;8.27;;;15.60;99.90;;;;;;5094371;28;20048;-53
2022/06/06 01:29:36;;;;;;;15.55;11.40;;;15.70;99.90;;;;;;5092893;28;20123;-52
2022/06/06 01:32:09;;;;;;;20.33;15.75;;;15.70;99.90;;;;;;5094291;28;20040;-53
2022/06/06 01:34:38;;;;;;;27.35;19.23;;;15.70;99.90;;;;;;5093950;28;20130;-52
2022/06/06 01:37:21;;;;;;;26.50;20.13;;;15.90;99.90;;;;;;5094174;28;20548;-54
2022/06/06 01:39:47;;;;;;;27.70;21.40;;;15.70;99.90;;;;;;5094024;28;20043;-54
2022/06/06 01:42:28;;;;;;;31.10;23.02;;;15.70;99.90;;;;;;5093711;28;20051;-52
2022/06/06 01:45:01;;;;;;;29.98;21.70;;;15.70;99.90;;;;;;5093984;28;20086;-54
2022/06/06 01:47:44;;;;;;;30.23;20.27;;;15.60;99.90;;;;;;5093657;28;20510;-54
2022/06/06 01:50:12;;;;;;;25.35;18.65;;;15.60;99.90;;;;;;5094001;28;20036;-54
2022/06/06 01:53:01;;;;;;;28.75;19.73;;;15.20;99.90;;;;;;5093976;28;20066;-53
2022/06/06 01:55:30;;;;;;;30.40;20.77;;;15.10;99.90;;;;;;5094077;28;20036;-54
2022/06/06 01:58:00;;;;;;;36.10;21.70;;;15.60;99.90;;;;;;5093776;28;20072;-53
2022/06/06 02:00:28;;;;;;;35.40;21.92;;;15.60;99.90;;;;;;5093237;28;20071;-53
2022/06/06 02:02:54;;;;;;;38.60;23.00;;;15.60;99.90;;;;;;5093390;28;20426;-53
2022/06/06 02:05:20;;;;;;;37.15;22.90;;;15.40;99.90;;;;;;5093777;28;20051;-52
2022/06/06 02:07:46;;;;;;;37.85;22.92;;;15.50;99.90;;;;;;5093443;28;20086;-53
2022/06/06 02:10:13;;;;;;;46.30;26.30;;;15.40;99.90;;;;;;5093547;28;20384;-54
2022/06/06 02:12:40;;;;;;;45.70;26.55;;;15.40;99.90;;;;;;5093243;28;20032;-53
2022/06/06 02:15:09;;;;;;;51.75;28.58;;;15.40;99.90;;;;;;5092098;28;20172;-53
2022/06/06 02:17:34;;;;;;;54.22;29.60;;;15.40;99.90;;;;;;5092046;28;20104;-54
2022/06/06 02:20:04;;;;;;;54.20;29.55;;;15.30;99.90;;;;;;5093262;28;20491;-54
2022/06/06 02:22:31;;;;;;;56.50;31.23;;;15.30;99.90;;;;;;5093213;28;20429;-53
2022/06/06 02:24:56;;;;;;;51.53;29.20;;;15.20;99.90;;;;;;5093205;28;20044;-54
2022/06/06 02:27:22;;;;;;;54.05;30.48;;;15.20;99.90;;;;;;5093373;28;20084;-54
2022/06/06 02:29:48;;;;;;;54.08;29.95;;;15.20;99.90;;;;;;5092310;28;20028;-51
2022/06/06 02:32:14;;;;;;;52.08;29.95;;;15.20;99.90;;;;;;5091483;28;20372;-54
2022/06/06 02:34:39;;;;;;;51.55;28.25;;;15.20;99.90;;;;;;5093086;28;20032;-53
2022/06/06 02:37:05;;;;;;;49.30;26.75;;;15.10;99.90;;;;;;5093191;28;20047;-54
2022/06/06 02:39:31;;;;;;;53.05;27.00;;;15.10;99.90;;;;;;5092965;28;20058;-54
2022/06/06 02:41:57;;;;;;;44.15;23.83;;;15.10;99.90;;;;;;5091689;28;20040;-54
2022/06/06 02:44:23;;;;;;;44.40;22.88;;;15.00;99.90;;;;;;5092848;28;20044;-55
2022/06/06 02:46:50;;;;;;;39.97;21.75;;;14.10;99.90;;;;;;5091294;28;20036;-54
2022/06/06 02:49:16;;;;;;;42.55;23.35;;;15.00;99.90;;;;;;5092707;28;20433;-54
2022/06/06 02:51:42;;;;;;;49.42;24.48;;;14.80;99.90;;;;;;5092666;28;20032;-54
2022/06/06 02:54:07;;;;;;;52.20;26.30;;;13.80;99.90;;;;;;5092606;28;20510;-60
2022/06/06 02:56:33;;;;;;;54.13;26.02;;;14.80;99.90;;;;;;5091295;28;20055;-60
2022/06/06 02:59:04;;;;;;;53.33;25.17;;;15.10;99.90;;;;;;5092474;28;20036;-60
2022/06/06 03:01:30;;;;;;;53.75;26.15;;;14.80;99.90;;;;;;5092262;28;20564;-60
2022/06/06 03:03:56;;;;;;;63.55;28.30;;;14.70;99.90;;;;;;5090910;28;20157;-60
2022/06/06 03:06:30;;;;;;;64.97;29.50;;;14.70;99.90;;;;;;5092482;28;20036;-60
2022/06/06 03:09:36;;;;;;;60.45;28.17;;;15.00;99.90;;;;;;5092824;28;20089;-60
2022/06/06 03:12:34;;;;;;;57.25;27.15;;;14.50;99.90;;;;;;5092465;28;20040;-60
2022/06/06 03:15:34;;;;;;;52.33;24.65;;;14.40;99.90;;;;;;5090951;28;20495;-60
2022/06/06 03:21:31;;;;;;;53.47;22.95;;;14.50;99.90;;;;;;5092127;28;20548;-60
2022/06/06 03:24:21;;;;;;;41.17;19.70;;;14.50;99.90;;;;;;5091822;28;20127;-60
2022/06/06 03:27:18;;;;;;;35.83;17.90;;;14.60;99.90;;;;;;5091922;28;20387;-60
2022/06/06 03:29:56;;;;;;;35.25;16.35;;;14.50;99.90;;;;;;5091831;28;20075;-60
2022/06/06 03:32:40;;;;;;;34.13;16.50;;;14.50;99.90;;;;;;5091849;28;20566;-60
2022/06/06 03:35:30;;;;;;;37.75;16.50;;;14.60;99.90;;;;;;5092282;28;20048;-61
2022/06/06 03:38:11;;;;;;;39.20;17.55;;;14.70;99.90;;;;;;5092286;28;20109;-60
2022/06/06 03:40:51;;;;;;;38.65;18.33;;;14.50;99.90;;;;;;5091871;28;20040;-60
2022/06/06 03:43:34;;;;;;;31.13;16.27;;;14.30;99.90;;;;;;5091734;28;20616;-60
2022/06/06 03:46:33;;;;;;;35.70;17.40;;;14.40;99.90;;;;;;5091696;28;20040;-60
2022/06/06 03:49:28;;;;;;;34.67;16.75;;;14.40;99.90;;;;;;5091955;28;20040;-60
2022/06/06 03:52:19;;;;;;;35.33;16.70;;;14.30;99.90;;;;;;5048888;28;20053;-60
2022/06/06 03:55:06;;;;;;;33.65;16.17;;;14.40;99.90;;;;;;5048975;28;20037;-60
2022/06/06 03:57:34;;;;;;;37.13;17.17;;;14.30;99.90;;;;;;5032564;28;20607;-60
2022/06/06 04:00:07;;;;;;;33.67;16.10;;;14.20;99.90;;;;;;5048827;28;20136;-61
2022/06/06 04:02:37;;;;;;;39.85;18.25;;;14.30;99.90;;;;;;5048914;28;20432;-60
2022/06/06 04:05:10;;;;;;;30.58;15.80;;;14.20;99.90;;;;;;5048796;28;20503;-60
2022/06/06 04:07:36;;;;;;;33.35;16.02;;;14.10;99.90;;;;;;5048816;28;20428;-60
2022/06/06 04:10:03;;;;;;;28.30;14.75;;;14.40;99.90;;;;;;5048918;28;20123;-60
2022/06/06 04:12:40;;;;;;;28.95;14.88;;;14.30;99.90;;;;;;5048843;28;20164;-60
2022/06/06 04:15:11;;;;;;;33.22;16.10;;;14.10;99.90;;;;;;5048902;28;20535;-60
2022/06/06 04:18:13;;;;;;;32.75;17.23;;;14.30;99.90;;;;;;5048804;28;20140;-60
2022/06/06 04:21:20;;;;;;;38.45;17.35;;;14.30;99.90;;;;;;5048536;28;20047;-60
2022/06/06 04:24:12;;;;;;;37.88;18.35;;;14.30;99.90;;;;;;5008857;28;20058;-60
2022/06/06 04:27:14;;;;;;;36.30;17.98;;;15.40;99.90;;;;;;5009153;28;20049;-60
2022/06/06 04:30:01;;;;;;;35.22;16.85;;;14.20;99.90;;;;;;5008690;28;20053;-59
2022/06/06 04:32:46;;;;;;;37.58;17.92;;;14.20;99.90;;;;;;5028879;28;20034;-60
2022/06/06 04:35:21;;;;;;;32.95;17.35;;;14.30;99.90;;;;;;5028697;28;20448;-60
2022/06/06 04:37:49;;;;;;;31.10;17.00;;;14.30;99.90;;;;;;5012403;28;20408;-54
2022/06/06 04:40:20;;;;;;;32.28;16.88;;;14.30;99.90;;;;;;5028651;28;20483;-54
2022/06/06 04:43:11;;;;;;;37.30;17.67;;;14.20;99.90;;;;;;5028686;28;20037;-54
2022/06/06 04:45:58;;;;;;;36.90;18.17;;;14.10;99.90;;;;;;5028708;28;20038;-51
2022/06/06 04:48:24;;;;;;;31.35;17.65;;;14.30;99.90;;;;;;5028861;28;20616;-54
2022/06/06 04:50:51;;;;;;;33.78;17.73;;;14.30;99.90;;;;;;5028471;28;20120;-60
2022/06/06 04:53:21;;;;;;;31.42;18.25;;;14.50;99.90;;;;;;5031673;28;20045;-60
2022/06/06 04:55:50;;;;;;;30.92;17.83;;;14.20;99.90;;;;;;5032150;28;20456;-56
2022/06/06 04:58:18;;;;;;;30.55;16.70;;;14.30;99.90;;;;;;5032288;28;20069;-54
2022/06/06 05:00:44;;;;;;;32.25;17.05;;;14.30;99.90;;;;;;5069514;28;20059;-54
2022/06/06 05:03:10;;;;;;;26.58;16.08;;;14.30;99.90;;;;;;5094883;28;20068;-54
2022/06/06 05:05:42;;;;;;;26.98;16.38;;;14.20;99.90;;;;;;5094678;28;20040;-52
2022/06/06 05:08:26;;;;;;;26.63;15.63;;;14.30;99.90;;;;;;5094563;28;20039;-54
2022/06/06 05:11:04;;;;;;;25.83;15.70;;;14.20;99.90;;;;;;5094881;28;20119;-50
2022/06/06 05:13:58;;;;;;;21.58;13.80;;;14.50;99.90;;;;;;5094634;28;20086;-54
2022/06/06 05:16:32;;;;;;;20.13;12.43;;;14.60;99.90;;;;;;5093295;28;20052;-53
2022/06/06 05:19:22;;;;;;;17.55;11.48;;;14.50;99.90;;;;;;5094544;28;20399;-52
2022/06/06 05:22:07;;;;;;;19.73;10.75;;;14.10;99.90;;;;;;5094403;28;20047;-54
2022/06/06 05:24:41;;;;;;;13.68;9.90;;;14.60;99.90;;;;;;5094376;28;20430;-54
2022/06/06 05:27:25;;;;;;;15.93;9.90;;;14.40;99.90;;;;;;5076432;28;20044;-53
2022/06/06 05:30:00;;;;;;;16.42;9.85;;;14.80;99.90;;;;;;5094051;28;20043;-54
2022/06/06 05:32:41;;;;;;;16.63;9.67;;;14.50;99.90;;;;;;5093998;28;20043;-53
2022/06/06 05:35:25;;;;;;;12.90;9.52;;;14.20;99.90;;;;;;5094134;28;20274;-53
2022/06/06 05:37:56;;;;;;;17.77;10.18;;;14.70;99.90;;;;;;5094192;28;20043;-54
2022/06/06 05:40:38;;;;;;;15.10;10.48;;;14.80;99.90;;;;;;5094144;28;20047;-54
2022/06/06 05:43:25;;;;;;;18.23;12.15;;;14.70;99.90;;;;;;5094122;28;20453;-53
2022/06/06 05:46:05;;;;;;;23.42;13.60;;;14.70;99.90;;;;;;5093953;28;20052;-53
2022/06/06 05:48:54;;;;;;;21.40;14.10;;;14.70;99.90;;;;;;5094022;28;20054;-52
2022/06/06 05:51:26;;;;;;;24.35;14.65;;;14.80;99.90;;;;;;5093848;28;20395;-54
2022/06/06 05:54:29;;;;;;;28.58;16.60;;;14.80;99.90;;;;;;5093900;28;20043;-53
2022/06/06 05:56:58;;;;;;;27.60;16.95;;;14.80;99.90;;;;;;5087165;28;20051;-52
2022/06/06 06:00:01;;;;;;;32.38;17.35;;;14.90;99.90;;;;;;5093444;28;20499;-53
2022/06/06 06:03:01;;;;;;;28.40;16.83;;;14.80;99.90;;;;;;5093667;28;20115;-53
2022/06/06 06:05:40;;;;;;;30.98;17.52;;;14.80;99.90;;;;;;5093560;28;20086;-54
2022/06/06 06:08:34;;;;;;;31.48;17.67;;;14.70;99.90;;;;;;5093605;28;20040;-53
2022/06/06 06:11:18;;;;;;;25.10;16.00;;;14.80;99.90;;;;;;5075027;28;20050;-53
2022/06/06 06:13:46;;;;;;;25.83;15.25;;;14.80;99.90;;;;;;5093177;28;20488;-54
2022/06/06 06:16:15;;;;;;;21.92;14.05;;;14.80;99.90;;;;;;5093034;28;20487;-54
2022/06/06 06:18:49;;;;;;;21.33;13.35;;;15.30;99.90;;;;;;5093579;28;20039;-54
2022/06/06 06:21:30;;;;;;;19.30;11.93;;;16.70;99.90;;;;;;5093310;28;20484;-54
2022/06/06 06:24:10;;;;;;;18.08;11.55;;;17.30;99.90;;;;;;5093247;28;20040;-59
2022/06/06 06:26:37;;;;;;;18.52;11.35;;;18.70;99.90;;;;;;5093031;28;20339;-59
2022/06/06 06:29:05;;;;;;;17.60;11.82;;;18.70;99.90;;;;;;5091618;28;20071;-59
2022/06/06 06:31:55;;;;;;;19.73;12.05;;;20.90;99.90;;;;;;5093342;28;20063;-59
2022/06/06 06:34:39;;;;;;;17.13;11.15;;;21.90;99.90;;;;;;5092945;28;20483;-55
2022/06/06 06:37:31;;;;;;;18.83;11.50;;;22.70;99.90;;;;;;5093090;28;20039;-54
2022/06/06 06:40:32;;;;;;;16.45;10.95;;;22.70;99.90;;;;;;5092869;28;20048;-55
2022/06/06 06:43:10;;;;;;;17.48;11.68;;;23.40;99.90;;;;;;5069906;28;20131;-54
2022/06/06 06:45:51;;;;;;;18.67;11.65;;;23.50;99.90;;;;;;5092423;28;20551;-55
2022/06/06 06:48:36;;;;;;;18.10;12.10;;;23.20;99.90;;;;;;5092896;28;20036;-58
2022/06/06 06:51:09;;;;;;;17.60;11.57;;;23.10;99.90;;;;;;5091598;28;20036;-55
2022/06/06 06:53:46;;;;;;;19.50;12.07;;;22.50;99.90;;;;;;5092582;28;20349;-54
2022/06/06 06:56:22;;;;;;;19.98;12.93;;;21.50;99.90;;;;;;5092745;28;20036;-54
2022/06/06 06:58:47;;;;;;;20.67;12.93;;;20.10;99.90;;;;;;5092371;28;20495;-59
2022/06/06 07:11:07;;;;;;;21.05;13.23;;;18.00;99.90;;;;;;5092510;28;20055;-60
2022/06/06 07:13:38;;;;;;;21.10;13.38;;;17.40;99.90;;;;;;5092134;28;20119;-59
2022/06/06 07:16:12;;;;;;;20.00;13.13;;;17.30;99.90;;;;;;5092198;28;20071;-60
2022/06/06 07:18:41;;;;;;;23.73;14.15;;;17.10;99.90;;;;;;5092071;28;20071;-59
2022/06/06 07:21:09;;;;;;;24.77;14.70;;;17.10;99.90;;;;;;5092164;28;20107;-55
2022/06/06 07:26:49;;;;;;;23.95;15.05;;;17.30;99.90;;;;;;5070301;28;20049;-59
2022/06/06 07:29:21;;;;;;;25.17;15.63;;;17.90;99.90;;;;;;5071301;28;20068;-59
2022/06/06 07:32:12;;;;;;;25.25;15.55;;;18.30;99.90;;;;;;5070972;28;20348;-59
2022/06/06 07:35:00;;;;;;;25.13;15.27;;;18.40;99.90;;;;;;5071110;28;20094;-60
2022/06/06 07:38:06;;;;;;;23.90;14.70;;;18.90;99.90;;;;;;5070952;28;20044;-59
2022/06/06 07:41:07;;;;;;;27.25;15.95;;;19.10;99.90;;;;;;5071096;28;20044;-59
2022/06/06 07:43:46;;;;;;;25.98;15.80;;;18.90;99.90;;;;;;5071004;28;20242;-59
2022/06/06 07:46:48;;;;;;;28.80;15.88;;;18.60;99.90;;;;;;5070356;28;20040;-59
2022/06/06 07:49:27;;;;;;;27.90;16.33;;;17.90;99.90;;;;;;5070526;28;20041;-59
2022/06/06 07:52:14;;;;;;;30.33;16.98;;;17.80;99.90;;;;;;5071352;28;20052;-59
2022/06/06 07:54:57;;;;;;;25.92;16.05;;;18.00;99.90;;;;;;5071500;28;20102;-59
2022/06/06 07:57:23;;;;;;;24.77;15.63;;;;;;;;;;5071714;28;20470;-60
2022/06/06 08:00:01;;;;;;;23.13;14.35;;;18.60;99.90;;;;;;5069858;28;20479;-60
2022/06/06 08:02:27;;;;;;;18.20;11.73;;;19.30;99.90;;;;;;5070439;28;20057;-60
2022/06/06 08:05:26;;;;;;;18.80;11.48;;;19.60;99.90;;;;;;5070659;28;20052;-61
2022/06/06 08:08:07;;;;;;;15.95;9.90;;;20.50;99.90;;;;;;5068929;28;20044;-60
2022/06/06 08:10:43;;;;;;;12.32;8.73;;;19.90;99.90;;;;;;5068208;28;20040;-60
2022/06/06 08:13:09;;;;;;;13.85;7.60;;;20.10;99.90;;;;;;5048992;28;20488;-60
2022/06/06 08:16:07;;;;;;;13.82;6.70;;;20.50;99.90;;;;;;5049746;28;20091;-65
2022/06/06 08:19:04;;;;;;;13.98;5.93;;;21.00;99.90;;;;;;5049001;28;20049;-65
2022/06/06 08:21:39;;;;;;;9.50;5.05;;;20.80;99.90;;;;;;5050500;28;20040;-65
2022/06/06 08:24:06;;;;;;;;;;;20.80;99.90;;;;;;5050387;28;20059;-65
2022/06/06 08:26:37;;;;;;;8.43;4.97;;;20.80;99.90;;;;;;5050733;28;19924;-65
2022/06/06 08:29:05;;;;;;;7.28;4.80;;;21.10;99.90;;;;;;5053854;28;20122;-65
2022/06/06 08:31:31;;;;;;;10.52;4.65;;;20.40;99.90;;;;;;5055099;28;20049;-65
2022/06/06 08:33:57;;;;;;;8.43;4.00;;;20.10;99.90;;;;;;5073614;28;20118;-65
2022/06/06 08:36:41;;;;;;;8.77;3.40;;;20.20;99.90;;;;;;5074405;28;20123;-70
2022/06/06 08:39:17;;;;;;;8.02;3.30;;;19.60;99.90;;;;;;5073616;28;20087;-64
2022/06/06 08:41:57;;;;;;;6.97;2.80;;;20.20;99.90;;;;;;5073790;28;20044;-65
2022/06/06 08:44:29;;;;;;;5.72;2.53;;;20.80;99.90;;;;;;5073915;28;20040;-65
2022/06/06 08:47:10;;;;;;;8.63;2.80;;;20.50;99.90;;;;;;5072705;28;20068;-66
2022/06/06 08:53:23;;;;;;;7.40;2.72;;;20.10;99.90;;;;;;5070868;28;20110;-65
2022/06/06 08:56:15;;;;;;;6.07;2.70;;;20.30;99.90;;;;;;5073786;28;20040;-65
2022/06/06 08:59:00;;;;;;;5.40;2.70;;;20.20;99.90;;;;;;5073722;28;20055;-65
2022/06/06 09:02:03;;;;;;;8.60;2.70;;;20.70;99.90;;;;;;5073683;28;20090;-65
2022/06/06 09:05:04;;;;;;;6.30;2.80;;;20.50;99.90;;;;;;5073421;28;20096;-65
2022/06/06 09:07:42;;;;;;;5.90;2.30;;;20.80;99.90;;;;;;5048114;28;20415;-65
2022/06/06 09:10:47;;;;;;;5.32;2.40;;;20.60;99.90;;;;;;5073056;28;20403;-65
2022/06/06 09:13:31;;;;;;;7.32;2.47;;;20.20;99.90;;;;;;5073123;28;20040;-65
2022/06/06 09:16:07;;;;;;;8.18;2.30;;;20.60;99.90;;;;;;5054938;28;20056;-65
2022/06/06 09:18:41;;;;;;;;;;;20.70;99.90;;;;;;5074090;28;20084;-65
2022/06/06 09:21:28;;;;;;;6.97;2.40;;;20.70;99.90;;;;;;5072880;28;19928;-65
2022/06/06 09:24:13;;;;;;;7.20;2.60;;;20.60;99.90;;;;;;5073098;28;20036;-65
2022/06/06 09:26:53;;;;;;;5.75;2.50;;;20.50;99.90;;;;;;5072964;28;20498;-65
2022/06/06 09:29:31;;;;;;;7.65;2.60;;;20.60;99.90;;;;;;5072725;28;20041;-65
2022/06/06 09:32:19;;;;;;;7.30;3.20;;;20.70;99.90;;;;;;5073270;28;20089;-65
2022/06/06 09:35:12;;;;;;;6.05;2.50;;;21.40;99.90;;;;;;5073318;28;20052;-65
2022/06/06 09:38:06;;;;;;;4.68;2.53;;;20.60;99.90;;;;;;5071967;28;20131;-65
2022/06/06 09:41:10;;;;;;;6.97;2.92;;;20.60;99.90;;;;;;5073247;28;20048;-65
2022/06/06 09:44:02;;;;;;;11.45;3.22;;;20.60;99.90;;;;;;5073587;28;20040;-65
2022/06/06 09:46:41;;;;;;;8.77;3.10;;;20.60;99.90;;;;;;5072979;28;20407;-65
2022/06/06 09:49:37;;;;;;;4.43;2.53;;;20.60;99.90;;;;;;5072579;28;20040;-65
2022/06/06 09:52:21;;;;;;;;;;;20.70;99.90;;;;;;5072987;28;20043;-65
2022/06/06 10:01:26;;;;;;;6.93;2.30;;;20.70;99.90;;;;;;5070998;28;20147;-65
2022/06/06 10:04:12;;;;;;;6.65;2.20;;;20.30;99.90;;;;;;5069954;28;20476;-65
2022/06/06 10:07:07;;;;;;;6.00;2.20;;;20.70;99.90;;;;;;5068967;28;20080;-65
2022/06/06 10:10:10;;;;;;;7.22;2.20;;;20.50;99.90;;;;;;5070335;28;20036;-65
2022/06/06 10:13:00;;;;;;;3.95;2.00;;;20.60;99.90;;;;;;5052201;28;20055;-65
2022/06/06 10:16:04;;;;;;;4.47;2.20;;;20.60;99.90;;;;;;5070157;28;20124;-65
2022/06/06 10:19:01;;;;;;;4.45;2.63;;;20.70;99.90;;;;;;5068572;28;20044;-65
2022/06/06 10:21:45;;;;;;;5.35;2.28;;;21.30;99.90;;;;;;5069920;28;20055;-65
2022/06/06 10:24:29;;;;;;;6.75;2.33;;;20.90;99.90;;;;;;5068768;28;20166;-65
2022/06/06 10:26:59;;;;;;;4.78;2.22;;;20.90;99.90;;;;;;5065376;28;20032;-65
2022/06/06 10:33:03;;;;;;;7.95;2.22;;;21.10;99.90;;;;;;5073022;28;20124;-65
2022/06/06 10:35:37;;;;;;;;;;;21.10;98.90;;;;;;5070100;28;20510;-65
2022/06/06 10:38:25;;;;;;;6.28;1.95;;;21.10;99.90;;;;;;5049980;28;19921;-65
2022/06/06 10:41:28;;;;;;;8.40;2.22;;;21.00;99.90;;;;;;5067634;28;20127;-65
2022/06/06 10:44:26;;;;;;;6.63;2.15;;;21.10;99.50;;;;;;5069198;28;20048;-66
2022/06/06 10:47:37;;;;;;;7.22;1.92;;;21.10;99.90;;;;;;5069294;28;20119;-65
2022/06/06 10:50:11;;;;;;;5.15;1.80;;;21.10;99.90;;;;;;5060739;28;20106;-65
2022/06/06 10:52:58;;;;;;;6.88;1.80;;;21.10;98.80;;;;;;5049147;28;20057;-65
2022/06/06 10:55:44;;;;;;;3.60;1.73;;;21.00;99.90;;;;;;5049024;28;20048;-65
2022/06/06 10:58:48;;;;;;;8.30;1.80;;;20.90;96.50;;;;;;5049450;28;20049;-65
2022/06/06 11:01:19;;;;;;;5.35;1.85;;;21.70;99.90;;;;;;5051116;28;20132;-66
2022/06/06 11:04:09;;;;;;;2.38;1.45;;;21.30;96.50;;;;;;5058360;28;20075;-65
2022/06/06 11:07:05;;;;;;;3.45;1.60;;;21.20;96.20;;;;;;5059790;28;20063;-65
2022/06/06 11:10:02;;;;;;;6.95;1.67;;;21.20;96.50;;;;;;5071174;28;20135;-65
2022/06/06 11:12:49;;;;;;;4.45;1.67;;;21.20;97.10;;;;;;5070951;28;20376;-65
2022/06/06 11:15:15;;;;;;;4.72;1.77;;;20.80;97.30;;;;;;5069691;28;20060;-65
2022/06/06 11:18:24;;;;;;;4.63;1.50;;;21.00;95.10;;;;;;5069582;28;20109;-64
2022/06/06 11:21:17;;;;;;;5.88;1.50;;;21.00;98.40;;;;;;5068533;28;20043;-61
2022/06/06 11:24:02;;;;;;;4.63;1.50;;;20.90;94.10;;;;;;5068551;28;20072;-63
2022/06/06 11:27:09;;;;;;;3.63;1.50;;;20.40;96.70;;;;;;5071083;28;20048;-61
2022/06/06 11:30:04;;;;;;;3.42;1.60;;;20.50;96.70;;;;;;5071107;28;20483;-61
2022/06/06 11:32:57;;;;;;;5.68;1.60;;;20.30;98.30;;;;;;5070640;28;20622;-61
2022/06/06 11:35:27;;;;;;;4.78;1.60;;;20.10;99.90;;;;;;5071609;28;20076;-62
2022/06/06 11:38:14;;;;;;;5.78;1.52;;;20.20;99.90;;;;;;5071120;28;20036;-62
2022/06/06 11:41:01;;;;;;;3.88;1.80;;;20.40;99.90;;;;;;5070349;28;20273;-61
2022/06/06 11:43:45;;;;;;;3.13;1.77;;;20.60;99.90;;;;;;5071130;28;20119;-61
2022/06/06 11:46:34;;;;;;;3.55;1.60;;;20.70;99.90;;;;;;5071268;28;20309;-61
2022/06/06 11:49:21;;;;;;;3.20;1.67;;;20.70;99.90;;;;;;5071398;28;20425;-61
2022/06/06 11:52:20;;;;;;;6.72;1.90;;;20.70;99.90;;;;;;5071190;28;20372;-61
2022/06/06 11:55:03;;;;;;;5.38;1.83;;;20.60;99.90;;;;;;5069851;28;20093;-61
2022/06/06 11:57:38;;;;;;;5.65;2.00;;;20.50;99.90;;;;;;5069862;28;20138;-61
2022/06/06 12:00:17;;;;;;;7.35;2.42;;;20.20;99.90;;;;;;5071062;28;20044;-61
2022/06/06 12:03:11;;;;;;;3.88;1.77;;;20.10;99.90;;;;;;5075378;28;20041;-61
2022/06/06 12:06:07;;;;;;;5.38;2.00;;;20.00;99.90;;;;;;5075250;28;20124;-61
2022/06/06 12:08:52;;;;;;;2.45;1.60;;;19.20;99.90;;;;;;5057635;28;20423;-61
2022/06/06 12:11:52;;;;;;;3.70;1.98;;;19.50;99.90;;;;;;5075174;28;20045;-61
2022/06/06 12:14:27;;;;;;;5.03;1.45;;;19.80;99.90;;;;;;5075366;28;20037;-61
2022/06/06 12:17:10;;;;;;;3.43;1.60;;;19.30;99.90;;;;;;5075361;28;20036;-61
2022/06/06 12:20:01;;;;;;;3.30;1.40;;;19.20;99.90;;;;;;5073769;28;20052;-62
2022/06/06 12:22:38;;;;;;;1.98;1.40;;;19.20;99.90;;;;;;5074782;28;20096;-62
2022/06/06 12:25:26;;;;;;;3.72;1.50;;;19.50;99.90;;;;;;5074635;28;20056;-61
2022/06/06 12:28:01;;;;;;;3.78;1.52;;;19.90;99.90;;;;;;5073654;28;20119;-61
2022/06/06 12:30:42;;;;;;;3.17;1.52;;;19.90;99.90;;;;;;5074525;28;20044;-61
2022/06/06 12:33:18;;;;;;;6.75;1.77;;;19.90;99.90;;;;;;5073307;28;20040;-61
2022/06/06 12:36:14;;;;;;;6.45;1.80;;;20.10;99.90;;;;;;5056560;28;20551;-61
2022/06/06 12:38:58;;;;;;;11.82;2.55;;;19.40;99.90;;;;;;5074335;28;20127;-62
2022/06/06 12:41:37;;;;;;;7.88;2.20;;;19.40;99.90;;;;;;5074662;28;20131;-62
2022/06/06 12:44:43;;;;;;;5.50;1.83;;;19.20;99.90;;;;;;5073636;28;20492;-61
2022/06/06 12:47:18;;;;;;;;;;;18.70;99.90;;;;;;5055033;28;20067;-63
2022/06/06 12:49:56;;;;;;;2.50;1.50;;;18.70;99.90;;;;;;5054629;28;20379;-61
2022/06/06 12:53:03;;;;;;;4.93;1.58;;;18.70;99.90;;;;;;5054487;28;20037;-62
2022/06/06 12:58:44;;;;;;;2.13;1.55;;;18.70;99.90;;;;;;5054358;28;20049;-61
2022/06/06 13:02:02;;;;;;;4.35;1.60;;;18.70;99.90;;;;;;5068488;28;20055;-61
2022/06/06 13:04:52;;;;;;;8.15;1.80;;;18.70;99.90;;;;;;5057860;28;20057;-61
2022/06/06 13:07:50;;;;;;;4.13;1.60;;;19.50;99.90;;;;;;5074310;28;20036;-62
2022/06/06 13:10:25;;;;;;;4.78;1.70;;;18.60;99.90;;;;;;5073900;28;20066;-61
2022/06/06 13:12:51;;;;;;;;;;;18.70;99.90;;;;;;5073763;28;20062;-61
2022/06/06 13:15:31;;;;;;;4.03;1.83;;;18.90;99.90;;;;;;5067793;28;19942;-61
2022/06/06 13:18:34;;;;;;;3.95;1.98;;;18.30;99.90;;;;;;5070659;28;20127;-61
2022/06/06 13:21:24;;;;;;;5.07;2.10;;;17.70;99.90;;;;;;5066587;28;20045;-62
2022/06/06 13:24:17;;;;;;;6.60;2.35;;;18.40;99.90;;;;;;5073868;28;20083;-61
2022/06/06 13:26:49;;;;;;;3.08;2.30;;;18.70;99.90;;;;;;5073328;28;20056;-61
2022/06/06 13:29:25;;;;;;;3.83;2.20;;;18.50;99.90;;;;;;5073337;28;20090;-61
2022/06/06 13:32:20;;;;;;;3.00;1.90;;;19.20;99.90;;;;;;5071874;28;20533;-61
2022/06/06 13:35:07;;;;;;;2.42;1.55;;;18.80;99.90;;;;;;5053281;28;20140;-64
2022/06/06 13:38:10;;;;;;;4.50;1.40;;;18.90;99.90;;;;;;5063771;28;20056;-65
2022/06/06 13:40:44;;;;;;;2.58;1.52;;;18.90;99.90;;;;;;5065072;28;20088;-65
2022/06/06 13:43:18;;;;;;;3.70;1.70;;;18.60;99.90;;;;;;5056097;28;20076;-65
2022/06/06 13:46:05;;;;;;;4.55;1.67;;;19.00;99.90;;;;;;5072764;28;20055;-65
2022/06/06 13:49:05;;;;;;;2.47;1.35;;;19.00;99.90;;;;;;5072590;28;20124;-65
2022/06/06 13:52:00;;;;;;;2.85;1.50;;;19.00;99.90;;;;;;5072701;28;20048;-65
2022/06/06 13:54:29;;;;;;;2.35;1.40;;;19.00;99.90;;;;;;5073150;28;20047;-65
2022/06/06 13:57:31;;;;;;;3.00;1.40;;;18.80;99.90;;;;;;5072671;28;20056;-65
2022/06/06 14:00:07;;;;;;;3.63;1.55;;;19.70;99.90;;;;;;5059341;28;20056;-65
2022/06/06 14:02:48;;;;;;;3.65;1.60;;;18.90;99.90;;;;;;5072627;28;20082;-65
2022/06/06 14:05:31;;;;;;;3.70;1.90;;;18.80;99.90;;;;;;5072448;28;20387;-65
2022/06/06 14:08:15;;;;;;;3.35;2.00;;;18.70;99.90;;;;;;5072164;28;20084;-65
2022/06/06 14:10:47;;;;;;;3.03;2.10;;;18.20;99.90;;;;;;5072240;28;20068;-65
2022/06/06 14:13:29;;;;;;;4.90;2.20;;;18.10;99.90;;;;;;5072074;28;20059;-66
2022/06/06 14:15:59;;;;;;;3.47;2.50;;;18.00;99.90;;;;;;5087254;28;20044;-65
2022/06/06 14:18:32;;;;;;;5.13;3.10;;;18.10;99.90;;;;;;5071936;28;20311;-65
2022/06/06 14:21:01;;;;;;;4.95;2.90;;;17.90;99.90;;;;;;5072264;28;20044;-65
2022/06/06 14:23:35;;;;;;;4.68;3.10;;;17.50;99.90;;;;;;5070385;28;20056;-65